Spring Lk Pk, Minnesota
Current Conditions -  °F | °C
As of 9:45 AM on Friday 19 Dec 2014 (Local Time) from KANE Reporting Station
Overcast Overcast  
Wind Chill: 18°   Ceiling: 1400
Heat Index: 27°   Visibility: 10mi
Dew Point: 21°   Wind: 8mph
Humidity: 80%   Direction: 130°SE
Pressure: 30.24"   Gusts: NA
Location:  45.0968°N, 93.2542°W
Report Text: KANE 191545Z 13007KT 10SM BKN014 OVC033 M03/M06 A3024
Loading
Personal Weather Stations






























Interactive Weather Map New forecast layout! Learn more

10-Day Weather Forecast

Advertisements
Track Severe Weather on mobile